createdAt,value
2022-10-30T00:04:14.460Z,12.70
2022-10-30T00:09:16.755Z,13.55
2022-10-30T00:14:19.146Z,13.45
2022-10-30T00:19:21.464Z,13.95
2022-10-30T00:24:24.388Z,12.52
2022-10-30T00:29:26.707Z,12.43
2022-10-30T00:34:29.097Z,12.27
2022-10-30T00:39:31.545Z,10.82
2022-10-30T00:44:46.404Z,10.80
2022-10-30T00:50:16.174Z,11.63
2022-10-30T00:55:24.382Z,11.02
2022-10-30T01:00:28.244Z,10.85
2022-10-30T01:05:31.589Z,12.15
2022-10-30T01:10:34.065Z,10.18
2022-10-30T01:15:39.162Z,11.90
2022-10-30T01:21:08.292Z,10.30
2022-10-30T01:26:23.359Z,11.50
2022-10-30T01:31:56.492Z,9.18
2022-10-30T01:37:08.584Z,11.23
2022-10-30T01:42:42.906Z,12.18
2022-10-30T01:48:12.802Z,10.55
2022-10-30T01:53:30.620Z,11.10
2022-10-30T01:58:44.292Z,10.98
2022-10-30T02:03:47.261Z,11.20
2022-10-30T02:08:49.629Z,11.00
2022-10-30T02:13:53.686Z,12.15
2022-10-30T02:18:55.935Z,11.30
2022-10-30T02:23:58.202Z,11.60
2022-10-30T02:29:00.852Z,12.20
2022-10-30T02:34:03.511Z,13.20
2022-10-30T02:39:07.081Z,12.30
2022-10-30T02:44:11.122Z,12.77
2022-10-30T02:49:13.459Z,12.43
2022-10-30T02:54:15.817Z,12.20
2022-10-30T02:59:18.248Z,11.60
2022-10-30T03:04:20.702Z,11.45
2022-10-30T03:09:23.628Z,10.90
2022-10-30T03:14:26.120Z,10.07
2022-10-30T03:19:28.457Z,10.60
2022-10-30T03:24:30.806Z,11.00
2022-10-30T03:29:33.173Z,11.63
2022-10-30T03:34:38.153Z,11.30
2022-10-30T03:39:42.764Z,11.30
2022-10-30T03:44:45.157Z,12.32
2022-10-30T03:49:47.457Z,12.13
2022-10-30T03:54:54.417Z,10.70
2022-10-30T03:59:56.991Z,12.15
2022-10-30T04:05:17.610Z,12.05
2022-10-30T04:10:23.710Z,11.32
2022-10-30T04:15:26.993Z,10.70
2022-10-30T04:20:29.434Z,10.43
2022-10-30T04:25:34.173Z,10.57
2022-10-30T04:30:38.697Z,10.68
2022-10-30T04:35:43.085Z,10.45
2022-10-30T04:40:52.110Z,10.43
2022-10-30T04:45:54.548Z,10.85
2022-10-30T04:50:59.496Z,10.60
2022-10-30T04:56:02.356Z,9.48
2022-10-30T05:01:06.900Z,9.25
2022-10-30T05:06:23.100Z,9.80
2022-10-30T05:11:25.899Z,10.90
2022-10-30T05:16:28.298Z,11.85
2022-10-30T05:21:33.008Z,11.30
2022-10-30T05:26:35.293Z,10.15
2022-10-30T05:31:37.696Z,11.23
2022-10-30T05:36:51.965Z,11.50
2022-10-30T05:41:55.957Z,9.98
2022-10-30T05:47:01.473Z,10.13
2022-10-30T05:52:07.286Z,10.48
2022-10-30T05:57:09.611Z,9.93
2022-10-30T06:02:14.488Z,11.05
2022-10-30T06:07:17.448Z,11.80
2022-10-30T06:12:19.928Z,12.43
2022-10-30T06:17:48.757Z,13.48
2022-10-30T06:23:01.565Z,15.55
2022-10-30T06:28:14.934Z,12.88
2022-10-30T06:33:17.981Z,14.73
2022-10-30T06:38:24.851Z,12.90
2022-10-30T06:43:28.983Z,14.40
2022-10-30T06:48:39.206Z,14.27
2022-10-30T06:53:41.555Z,13.05
2022-10-30T06:59:02.371Z,14.88
2022-10-30T07:04:23.329Z,13.52
2022-10-30T07:09:25.974Z,15.38
2022-10-30T07:14:28.615Z,14.63
2022-10-30T07:19:53.987Z,13.77
2022-10-30T07:24:56.649Z,13.65
2022-10-30T07:30:22.711Z,12.30
2022-10-30T07:35:48.229Z,12.05
2022-10-30T07:41:01.000Z,10.52
2022-10-30T07:46:21.555Z,10.80
2022-10-30T07:51:42.881Z,10.65
2022-10-30T07:56:46.382Z,10.15
2022-10-30T08:01:51.992Z,10.38
2022-10-30T08:07:03.477Z,9.68
2022-10-30T08:12:06.388Z,10.38
2022-10-30T08:17:10.764Z,10.57
2022-10-30T08:22:14.984Z,11.95
2022-10-30T08:27:22.215Z,24.10
2022-10-30T08:32:24.718Z,15.88
2022-10-30T08:37:46.973Z,16.33
2022-10-30T08:42:56.902Z,14.05
2022-10-30T08:48:04.053Z,13.60
2022-10-30T08:53:12.756Z,15.75
2022-10-30T08:58:15.339Z,13.32
2022-10-30T09:03:17.797Z,12.63
2022-10-30T09:08:38.730Z,13.18
2022-10-30T09:13:46.165Z,10.57
2022-10-30T09:18:48.636Z,9.43
2022-10-30T09:23:51.322Z,8.90
2022-10-30T09:29:26.179Z,10.30
2022-10-30T09:34:52.997Z,8.40
2022-10-30T09:40:04.566Z,7.82
2022-10-30T09:45:29.829Z,8.90
2022-10-30T09:50:56.100Z,8.35
2022-10-30T09:56:09.334Z,8.32
2022-10-30T10:01:23.585Z,7.72
2022-10-30T10:06:38.445Z,9.07
2022-10-30T10:12:03.466Z,8.55
2022-10-30T10:17:06.745Z,7.80
2022-10-30T10:22:26.874Z,7.75
2022-10-30T10:28:00.173Z,6.85
2022-10-30T10:33:10.273Z,6.88
2022-10-30T10:38:12.512Z,7.00
2022-10-30T10:43:19.191Z,6.80
2022-10-30T10:48:42.859Z,6.03
2022-10-30T10:54:09.575Z,6.57
2022-10-30T10:59:19.090Z,6.10
2022-10-30T11:04:37.911Z,7.82
2022-10-30T11:09:40.695Z,6.93
2022-10-30T11:14:43.036Z,7.20
2022-10-30T11:19:47.816Z,7.75
2022-10-30T11:24:53.299Z,8.60
2022-10-30T11:29:59.748Z,8.05
2022-10-30T11:35:09.223Z,8.02
2022-10-30T11:40:11.644Z,7.18
2022-10-30T11:45:26.231Z,7.55
2022-10-30T11:50:32.593Z,6.50
2022-10-30T11:55:42.591Z,6.10
2022-10-30T12:00:45.439Z,6.75
2022-10-30T12:05:50.274Z,7.22
2022-10-30T12:11:03.887Z,6.82
2022-10-30T12:16:15.395Z,5.97
2022-10-30T12:21:19.819Z,7.10
2022-10-30T12:26:23.431Z,7.22
2022-10-30T12:31:31.877Z,8.57
2022-10-30T12:36:37.221Z,13.45
2022-10-30T12:42:01.684Z,10.02
2022-10-30T12:47:04.112Z,8.18
2022-10-30T12:52:39.052Z,6.82
2022-10-30T12:57:45.415Z,7.10
2022-10-30T13:03:12.361Z,6.63
2022-10-30T13:08:14.639Z,6.60
2022-10-30T13:13:24.001Z,7.03
2022-10-30T13:18:27.188Z,8.98
2022-10-30T13:23:52.361Z,10.05
2022-10-30T13:29:02.323Z,6.85
2022-10-30T13:34:25.459Z,8.25
2022-10-30T13:39:55.475Z,9.50
2022-10-30T13:45:27.190Z,6.97
2022-10-30T13:50:32.205Z,13.88
2022-10-30T13:55:36.436Z,9.73
2022-10-30T14:01:00.220Z,9.45
2022-10-30T14:06:16.594Z,7.82
2022-10-30T14:11:19.216Z,6.32
2022-10-30T14:16:35.085Z,10.25
2022-10-30T14:21:55.807Z,8.45
2022-10-30T14:27:03.960Z,7.97
2022-10-30T14:32:15.338Z,9.38
2022-10-30T14:37:23.630Z,12.93
2022-10-30T14:42:40.181Z,7.30
2022-10-30T14:47:54.403Z,7.35
2022-10-30T14:52:59.761Z,6.78
2022-10-30T14:58:02.331Z,6.35
2022-10-30T15:03:14.913Z,7.45
2022-10-30T15:08:54.788Z,8.00
2022-10-30T15:14:00.168Z,10.50
2022-10-30T15:19:06.977Z,12.38
2022-10-30T15:24:16.191Z,33.65
2022-10-30T15:29:25.022Z,25.48
2022-10-30T15:34:31.856Z,11.13
2022-10-30T15:39:34.235Z,8.13
2022-10-30T15:44:38.730Z,7.75
2022-10-30T15:49:43.320Z,18.40
2022-10-30T15:54:46.376Z,22.88
2022-10-30T15:59:55.569Z,10.55
2022-10-30T16:04:57.924Z,9.55
2022-10-30T16:10:02.030Z,14.43
2022-10-30T16:15:08.290Z,15.00
2022-10-30T16:20:11.409Z,12.02
2022-10-30T16:25:16.744Z,10.63
2022-10-30T16:30:19.233Z,14.40
2022-10-30T16:35:24.510Z,10.75
2022-10-30T16:40:28.936Z,10.90
2022-10-30T16:45:34.348Z,11.30
2022-10-30T16:50:38.699Z,9.80
2022-10-30T16:55:41.031Z,9.60
2022-10-30T17:00:50.552Z,10.57
2022-10-30T17:06:07.597Z,9.90
2022-10-30T17:11:21.445Z,12.33
2022-10-30T17:16:28.209Z,12.90
2022-10-30T17:21:39.058Z,11.70
2022-10-30T17:26:41.377Z,15.90
2022-10-30T17:31:44.179Z,15.13
2022-10-30T17:36:47.926Z,15.65
2022-10-30T17:41:50.343Z,18.30
2022-10-30T17:46:52.828Z,23.30
2022-10-30T17:51:55.347Z,20.20
2022-10-30T17:56:58.779Z,20.00
2022-10-30T18:02:01.475Z,20.48
2022-10-30T18:07:03.913Z,20.73
2022-10-30T18:12:07.870Z,22.27
2022-10-30T18:17:11.103Z,24.70
2022-10-30T18:22:14.675Z,26.48
2022-10-30T18:27:17.019Z,30.40
2022-10-30T18:32:19.336Z,29.40
2022-10-30T18:37:21.702Z,25.63
2022-10-30T18:42:24.243Z,28.42
2022-10-30T18:47:26.546Z,29.95
2022-10-30T18:52:28.841Z,34.42
2022-10-30T18:57:31.150Z,26.10
2022-10-30T19:02:33.651Z,28.85
2022-10-30T19:07:36.045Z,30.85
2022-10-30T19:12:38.757Z,33.28
2022-10-30T19:17:44.929Z,28.98
2022-10-30T19:22:47.269Z,36.95
2022-10-30T19:27:50.237Z,33.92
2022-10-30T19:32:52.555Z,36.00
2022-10-30T19:37:55.902Z,38.15
2022-10-30T19:42:59.151Z,29.77
2022-10-30T19:48:04.874Z,34.05
2022-10-30T19:53:08.129Z,36.60
2022-10-30T19:58:15.620Z,38.70
2022-10-30T20:08:23.353Z,36.97
2022-10-30T20:13:26.718Z,36.42
2022-10-30T20:18:31.712Z,36.50
2022-10-30T20:23:34.615Z,34.70
2022-10-30T20:28:38.924Z,45.88
2022-10-30T20:33:41.381Z,40.03
2022-10-30T20:38:43.696Z,40.47
2022-10-30T20:43:46.046Z,40.72
2022-10-30T20:48:48.583Z,47.65
2022-10-30T20:53:50.900Z,41.85
2022-10-30T20:58:53.579Z,48.33
2022-10-30T21:04:00.656Z,45.90
2022-10-30T21:09:04.312Z,47.20
2022-10-30T21:14:06.777Z,48.30
2022-10-30T21:19:09.112Z,51.20
2022-10-30T21:24:11.519Z,50.70
2022-10-30T21:29:13.759Z,43.40
2022-10-30T21:34:24.938Z,50.05
2022-10-30T21:39:27.309Z,54.38
2022-10-30T21:44:29.615Z,62.58
2022-10-30T21:49:32.050Z,55.83
2022-10-30T21:54:34.361Z,47.95
2022-10-30T21:59:36.614Z,39.67
2022-10-30T22:04:38.990Z,43.58
2022-10-30T22:09:41.422Z,51.42
2022-10-30T22:14:43.776Z,72.55
2022-10-30T22:19:46.052Z,73.78
2022-10-30T22:24:48.401Z,80.85
2022-10-30T22:29:50.632Z,73.13
2022-10-30T22:34:52.985Z,76.55
2022-10-30T22:39:55.219Z,77.57
2022-10-30T22:44:57.467Z,70.50
2022-10-30T22:49:59.723Z,69.22
2022-10-30T22:55:02.105Z,73.80
2022-10-30T23:00:06.093Z,65.45
2022-10-30T23:05:08.481Z,68.60
2022-10-30T23:10:10.841Z,64.13
2022-10-30T23:15:13.109Z,62.83
2022-10-30T23:20:15.538Z,65.60
2022-10-30T23:25:17.828Z,66.47
2022-10-30T23:30:20.194Z,57.22
2022-10-30T23:35:22.499Z,54.40
2022-10-30T23:40:24.899Z,58.85
2022-10-30T23:45:27.277Z,57.10
2022-10-30T23:50:29.587Z,45.75
2022-10-30T23:55:32.066Z,52.85
